Main page


Airports :

Cambridge, England

Cambridge Airport

latitude: 52-12N, longitude: 000-11E, elevation: 15 m

Current weather observation

The report was made 25 minutes ago, at 17:20 UTC
Wind 12 kt from the North
Temperature 6°C
Humidity 52%
Pressure 1031 hPa
Visibility 10 km or more
Few clouds at a height of 3800 ft

METAR: EGSC 201720Z 01012KT 9999 FEW038 06/M03 Q1031

Time: 17:45 (17:45 UTC)


The report was made 43 minutes ago, at 17:02 UTC
Forecast valid from 20 at 18 UTC to 20 at 21 UTC
Wind 10 kt from the North/Northeast
Visibility 10 km or more
Scattered clouds at a height of 3500 ft

TAF: EGSC 201702Z 2018/2021 03010KT 9999 SCT035

Weather observations and forecasts of more than 4000 airports (METAR and TAF reports).

The available stations are represented by yellow and red dots on the map.

Hover mouse over dot to see the name of the station.

Then click to see weather observations and forecasts.

To change the map : click on the green buttons with a black cross to zoom in, on the green button with a dash to zoom out, or on the green arrows for adjacent maps.